createdAt,value
2023-01-02T00:00:37.883Z,7.73
2023-01-02T00:03:05.159Z,6.83
2023-01-02T00:05:33.678Z,4.87
2023-01-02T00:08:00.574Z,11.87
2023-01-02T00:10:27.520Z,10.13
2023-01-02T00:12:54.557Z,17.77
2023-01-02T00:15:21.551Z,5.43
2023-01-02T00:17:48.418Z,6.67
2023-01-02T00:20:15.466Z,7.20
2023-01-02T00:22:42.389Z,13.07
2023-01-02T00:25:09.650Z,14.97
2023-01-02T00:27:36.812Z,18.63
2023-01-02T00:30:06.097Z,16.40
2023-01-02T00:32:33.120Z,7.80
2023-01-02T00:35:00.463Z,7.97
2023-01-02T00:37:27.374Z,9.10
2023-01-02T00:39:54.426Z,6.83
2023-01-02T00:42:21.563Z,10.00
2023-01-02T00:44:48.651Z,7.43
2023-01-02T00:47:15.599Z,7.83
2023-01-02T00:49:42.565Z,9.03
2023-01-02T00:52:09.536Z,5.23
2023-01-02T00:54:36.502Z,6.40
2023-01-02T00:57:03.494Z,15.07
2023-01-02T00:59:30.461Z,4.60
2023-01-02T01:01:57.533Z,6.20
2023-01-02T01:04:24.503Z,11.63
2023-01-02T01:06:51.529Z,9.13
2023-01-02T01:09:18.447Z,9.20
2023-01-02T01:11:45.383Z,6.87
2023-01-02T01:14:12.288Z,7.83
2023-01-02T01:16:39.304Z,4.33
2023-01-02T01:19:06.319Z,11.87
2023-01-02T01:21:33.257Z,6.63
2023-01-02T01:24:00.191Z,15.77
2023-01-02T01:26:27.367Z,13.93
2023-01-02T01:28:55.638Z,4.07
2023-01-02T01:31:24.535Z,9.10
2023-01-02T01:33:51.853Z,11.03
2023-01-02T01:36:24.000Z,7.23
2023-01-02T01:38:51.444Z,10.47
2023-01-02T01:41:22.247Z,13.33
2023-01-02T01:43:53.084Z,6.33
2023-01-02T01:46:33.940Z,4.60
2023-01-02T01:49:07.355Z,6.77
2023-01-02T01:51:38.263Z,3.30
2023-01-02T01:54:11.200Z,13.60
2023-01-02T01:56:45.299Z,10.63
2023-01-02T01:59:12.990Z,27.27
2023-01-02T02:01:43.183Z,15.67
2023-01-02T02:04:11.486Z,3.20
2023-01-02T02:06:39.137Z,3.40
2023-01-02T02:09:19.175Z,7.37
2023-01-02T02:11:46.906Z,11.17
2023-01-02T02:14:13.925Z,8.03
2023-01-02T02:17:11.626Z,11.10
2023-01-02T02:20:24.858Z,13.40
2023-01-02T02:23:22.395Z,9.33
2023-01-02T02:26:23.865Z,9.83
2023-01-02T02:29:18.763Z,15.47
2023-01-02T02:32:31.694Z,8.73
2023-01-02T02:35:49.335Z,7.87
2023-01-02T02:38:39.316Z,7.10
2023-01-02T02:41:34.461Z,6.10
2023-01-02T02:55:39.466Z,27.67
2023-01-02T02:58:08.476Z,10.37
2023-01-02T03:00:35.800Z,16.10
2023-01-02T03:03:03.186Z,7.23
2023-01-02T03:08:34.403Z,10.40
2023-01-02T03:11:03.560Z,9.83
2023-01-02T03:14:00.040Z,4.03
2023-01-02T03:16:47.214Z,6.60
2023-01-02T03:19:39.107Z,6.83
2023-01-02T03:22:18.797Z,10.70
2023-01-02T03:24:50.745Z,7.17
2023-01-02T03:27:23.094Z,8.60
2023-01-02T03:30:03.787Z,6.43
2023-01-02T03:32:40.149Z,5.47
2023-01-02T03:35:14.530Z,5.70
2023-01-02T03:37:49.578Z,7.87
2023-01-02T03:40:24.118Z,11.23
2023-01-02T03:43:02.203Z,10.80
2023-01-02T03:45:33.240Z,12.73
2023-01-02T03:48:46.413Z,7.77
2023-01-02T03:51:13.616Z,9.53
2023-01-02T03:53:41.190Z,10.40
2023-01-02T03:56:32.630Z,5.10
2023-01-02T03:59:24.095Z,6.23
2023-01-02T04:02:23.455Z,15.40
2023-01-02T04:05:12.251Z,6.40
2023-01-02T04:08:06.364Z,8.20
2023-01-02T04:10:36.917Z,11.13
2023-01-02T04:13:11.555Z,8.50
2023-01-02T04:15:40.180Z,13.57
2023-01-02T04:18:15.975Z,4.03
2023-01-02T04:20:50.325Z,9.87
2023-01-02T04:23:22.237Z,10.73
2023-01-02T04:26:00.288Z,8.57
2023-01-02T04:28:31.369Z,11.50
2023-01-02T04:31:11.044Z,4.93
2023-01-02T04:33:43.660Z,10.37
2023-01-02T04:36:15.712Z,7.87
2023-01-02T04:38:43.870Z,8.83
2023-01-02T04:41:15.406Z,5.93
2023-01-02T04:43:44.184Z,6.10
2023-01-02T04:46:13.742Z,4.63
2023-01-02T04:48:40.638Z,9.47
2023-01-02T04:51:07.574Z,20.93
2023-01-02T04:53:35.425Z,8.07
2023-01-02T04:56:02.920Z,14.03
2023-01-02T04:58:29.958Z,10.97
2023-01-02T05:00:56.878Z,8.63
2023-01-02T05:03:24.320Z,11.43
2023-01-02T05:05:51.285Z,11.73
2023-01-02T05:08:18.144Z,13.83
2023-01-02T05:10:45.063Z,4.53
2023-01-02T05:13:11.953Z,7.10
2023-01-02T05:15:38.871Z,5.40
2023-01-02T05:18:05.950Z,7.20
2023-01-02T05:20:33.618Z,7.93
2023-01-02T05:23:18.922Z,10.60
2023-01-02T05:25:45.796Z,5.17
2023-01-02T05:28:13.812Z,13.10
2023-01-02T05:30:43.374Z,7.13
2023-01-02T05:33:13.022Z,18.30
2023-01-02T05:35:39.884Z,5.07
2023-01-02T05:38:07.345Z,9.00
2023-01-02T05:40:34.748Z,5.67
2023-01-02T05:43:01.609Z,17.00
2023-01-02T05:45:28.517Z,8.77
2023-01-02T05:47:55.527Z,4.53
2023-01-02T05:50:22.768Z,7.97
2023-01-02T05:52:49.665Z,8.30
2023-01-02T05:55:16.921Z,4.50
2023-01-02T05:57:43.843Z,12.57
2023-01-02T06:00:12.345Z,7.57
2023-01-02T06:02:45.606Z,15.10
2023-01-02T06:05:17.125Z,11.83
2023-01-02T06:07:44.085Z,3.17
2023-01-02T06:10:11.817Z,8.03
2023-01-02T06:12:39.103Z,4.27
2023-01-02T06:15:06.822Z,5.23
2023-01-02T06:17:36.205Z,13.23
2023-01-02T06:20:03.240Z,12.00
2023-01-02T06:22:33.159Z,3.83
2023-01-02T06:25:00.698Z,8.03
2023-01-02T06:27:27.689Z,6.80
2023-01-02T06:29:54.582Z,6.60
2023-01-02T06:32:23.680Z,13.73
2023-01-02T06:34:50.708Z,3.20
2023-01-02T06:37:18.937Z,6.97
2023-01-02T06:39:46.937Z,9.20
2023-01-02T06:42:13.999Z,13.10
2023-01-02T06:44:40.905Z,14.63
2023-01-02T06:47:08.887Z,4.07
2023-01-02T06:49:36.461Z,6.67
2023-01-02T06:52:03.436Z,11.30
2023-01-02T06:54:30.346Z,8.23
2023-01-02T06:56:59.223Z,11.00
2023-01-02T06:59:26.127Z,7.57
2023-01-02T07:01:53.552Z,14.87
2023-01-02T07:04:20.504Z,13.80
2023-01-02T07:06:47.401Z,8.37
2023-01-02T07:09:14.406Z,12.97
2023-01-02T07:11:41.241Z,5.63
2023-01-02T07:14:08.354Z,6.33
2023-01-02T07:16:38.154Z,2.90
2023-01-02T07:19:05.158Z,12.77
2023-01-02T07:21:32.155Z,9.03
2023-01-02T07:23:59.121Z,7.37
2023-01-02T07:26:26.269Z,2.87
2023-01-02T07:28:53.181Z,16.63
2023-01-02T07:31:21.422Z,5.20
2023-01-02T07:33:51.495Z,4.93
2023-01-02T07:36:19.769Z,3.90
2023-01-02T07:38:53.665Z,2.83
2023-01-02T07:41:25.437Z,2.77
2023-01-02T07:43:55.739Z,5.13
2023-01-02T07:46:23.145Z,5.73
2023-01-02T07:48:50.787Z,4.77
2023-01-02T07:51:22.886Z,8.20
2023-01-02T07:53:53.755Z,8.53
2023-01-02T07:56:20.571Z,5.97
2023-01-02T07:58:47.398Z,6.07
2023-01-02T08:01:14.515Z,2.37
2023-01-02T08:03:41.942Z,5.07
2023-01-02T08:06:11.409Z,3.37
2023-01-02T08:08:39.139Z,6.40
2023-01-02T08:11:07.784Z,5.33
2023-01-02T08:13:34.825Z,1.73
2023-01-02T08:16:10.595Z,4.73
2023-01-02T08:18:37.984Z,4.50
2023-01-02T08:21:05.317Z,16.20
2023-01-02T08:23:32.995Z,7.63
2023-01-02T08:26:05.703Z,6.03
2023-01-02T08:28:33.387Z,3.13
2023-01-02T08:31:00.969Z,6.00
2023-01-02T08:33:28.775Z,6.73
2023-01-02T08:35:56.696Z,2.67
2023-01-02T08:38:23.899Z,8.13
2023-01-02T08:40:51.382Z,7.20
2023-01-02T08:43:18.366Z,7.70
2023-01-02T08:45:45.291Z,5.40
2023-01-02T08:48:20.474Z,10.97
2023-01-02T08:50:49.795Z,8.70
2023-01-02T08:53:17.161Z,4.63
2023-01-02T08:55:44.083Z,3.20
2023-01-02T08:58:11.179Z,11.37
2023-01-02T09:00:38.105Z,5.73
2023-01-02T09:03:05.495Z,3.43
2023-01-02T09:05:32.804Z,3.60
2023-01-02T09:08:01.411Z,6.57
2023-01-02T09:10:28.269Z,12.17
2023-01-02T09:12:55.196Z,7.60
2023-01-02T09:15:26.272Z,7.97
2023-01-02T09:17:53.127Z,5.97
2023-01-02T09:20:20.600Z,4.30
2023-01-02T09:22:47.528Z,7.77
2023-01-02T09:25:18.893Z,13.23
2023-01-02T09:27:48.998Z,7.20
2023-01-02T09:30:16.338Z,10.50
2023-01-02T09:32:43.483Z,2.40
2023-01-02T09:35:10.408Z,7.63
2023-01-02T09:37:38.576Z,4.70
2023-01-02T09:40:06.416Z,12.10
2023-01-02T09:42:33.365Z,3.53
2023-01-02T09:45:08.631Z,6.40
2023-01-02T09:47:40.391Z,3.27
2023-01-02T09:50:17.827Z,5.70
2023-01-02T09:52:50.625Z,2.80
2023-01-02T09:55:23.598Z,4.50
2023-01-02T09:58:19.457Z,4.20
2023-01-02T10:00:50.044Z,4.80
2023-01-02T10:04:10.830Z,2.77
2023-01-02T10:07:25.219Z,4.60
2023-01-02T10:10:09.217Z,3.40
2023-01-02T10:13:32.668Z,3.40
2023-01-02T10:16:20.370Z,5.43
2023-01-02T10:18:51.833Z,1.40
2023-01-02T10:21:26.524Z,1.00
2023-01-02T10:24:12.353Z,1.00
2023-01-02T10:26:44.724Z,2.73
2023-01-02T10:29:35.932Z,1.63
2023-01-02T10:37:57.439Z,1.00
2023-01-02T10:40:25.546Z,3.97
2023-01-02T10:42:59.963Z,1.20
2023-01-02T10:45:27.256Z,2.43
2023-01-02T10:47:54.191Z,1.50
2023-01-02T10:50:29.283Z,1.07
2023-01-02T10:53:19.298Z,0.80
2023-01-02T10:55:46.776Z,1.37
2023-01-02T10:58:25.174Z,1.20
2023-01-02T11:01:25.806Z,1.13
2023-01-02T11:04:13.797Z,0.80
2023-01-02T11:06:51.603Z,0.90
2023-01-02T11:09:32.340Z,2.70
2023-01-02T11:12:25.439Z,2.40
2023-01-02T11:15:11.485Z,1.60
2023-01-02T11:17:43.101Z,1.80
2023-01-02T11:20:26.868Z,2.70
2023-01-02T11:22:56.982Z,1.87
2023-01-02T11:25:27.496Z,2.57
2023-01-02T11:27:58.564Z,2.23
2023-01-02T11:30:45.523Z,2.70
2023-01-02T11:33:34.498Z,2.13
2023-01-02T11:36:20.163Z,2.10
2023-01-02T11:38:59.595Z,2.50
2023-01-02T11:42:10.668Z,2.43
2023-01-02T11:44:53.102Z,2.30
2023-01-02T11:47:29.718Z,2.20
2023-01-02T11:49:57.115Z,2.50
2023-01-02T11:52:35.993Z,2.70
2023-01-02T11:55:32.925Z,3.83
2023-01-02T11:58:30.795Z,4.17
2023-01-02T12:01:22.867Z,5.70
2023-01-02T12:03:49.976Z,4.20
2023-01-02T12:06:23.859Z,3.00
2023-01-02T12:09:16.714Z,3.77
2023-01-02T12:12:13.903Z,4.13
2023-01-02T12:15:04.036Z,3.43
2023-01-02T12:18:03.546Z,4.27
2023-01-02T12:20:51.474Z,4.80
2023-01-02T12:23:58.907Z,4.53
2023-01-02T12:26:49.271Z,5.63
2023-01-02T12:30:10.316Z,4.93
2023-01-02T12:33:16.240Z,7.27
2023-01-02T12:36:05.456Z,4.60
2023-01-02T12:47:45.180Z,7.30
2023-01-02T12:54:18.851Z,10.30
2023-01-02T12:56:48.537Z,10.00
2023-01-02T12:59:40.279Z,8.43
2023-01-02T13:05:17.899Z,8.97
2023-01-02T13:07:54.139Z,8.43
2023-01-02T13:10:24.838Z,8.20
2023-01-02T13:12:52.693Z,9.10
2023-01-02T13:15:34.734Z,9.50
2023-01-02T13:18:27.308Z,8.90
2023-01-02T13:21:16.463Z,6.67
2023-01-02T13:23:51.898Z,7.23
2023-01-02T13:26:28.884Z,6.13
2023-01-02T13:29:06.944Z,6.40
2023-01-02T13:31:47.441Z,5.60
2023-01-02T13:34:23.024Z,6.10
2023-01-02T13:36:51.343Z,7.00
2023-01-02T13:39:51.787Z,6.20
2023-01-02T13:42:55.067Z,5.90
2023-01-02T13:45:31.746Z,6.40
2023-01-02T13:48:02.076Z,7.10
2023-01-02T13:50:33.742Z,6.13
2023-01-02T13:53:26.581Z,7.07
2023-01-02T13:56:09.178Z,8.37
2023-01-02T13:58:40.632Z,8.73
2023-01-02T14:01:28.011Z,7.37
2023-01-02T14:04:32.580Z,7.90
2023-01-02T14:07:52.479Z,8.70
2023-01-02T14:10:27.152Z,7.03
2023-01-02T14:13:07.929Z,10.23
2023-01-02T14:15:56.022Z,10.00
2023-01-02T14:18:30.927Z,10.07
2023-01-02T14:20:58.039Z,8.87
2023-01-02T14:23:30.679Z,8.63
2023-01-02T14:25:57.699Z,7.70
2023-01-02T14:28:28.238Z,9.63
2023-01-02T14:30:56.396Z,11.00
2023-01-02T14:33:35.227Z,10.73
2023-01-02T14:36:13.279Z,8.93
2023-01-02T14:38:53.134Z,12.40
2023-01-02T14:42:31.209Z,10.70
2023-01-02T14:45:03.835Z,11.50
2023-01-02T14:47:39.292Z,8.03
2023-01-02T14:50:14.128Z,13.30
2023-01-02T14:52:49.158Z,11.50
2023-01-02T14:55:28.719Z,10.37
2023-01-02T14:57:57.119Z,9.97
2023-01-02T15:00:32.145Z,11.00
2023-01-02T15:03:15.802Z,13.33
2023-01-02T15:05:49.722Z,10.77
2023-01-02T15:08:21.584Z,10.33
2023-01-02T15:11:21.559Z,9.67
2023-01-02T15:14:04.754Z,9.90
2023-01-02T15:16:38.777Z,11.20
2023-01-02T15:19:12.103Z,13.17
2023-01-02T15:21:40.156Z,14.37
2023-01-02T15:24:07.908Z,11.00
2023-01-02T15:26:35.496Z,12.10
2023-01-02T15:29:19.145Z,15.90
2023-01-02T15:32:25.924Z,13.13
2023-01-02T15:34:53.617Z,15.03
2023-01-02T15:37:22.788Z,16.93
2023-01-02T15:39:53.726Z,14.27
2023-01-02T15:42:43.167Z,15.10
2023-01-02T15:45:15.314Z,15.40
2023-01-02T15:47:51.110Z,19.30
2023-01-02T15:50:29.778Z,16.37
2023-01-02T15:53:02.766Z,20.70
2023-01-02T15:55:41.025Z,19.17
2023-01-02T15:58:32.232Z,19.83
2023-01-02T16:01:24.173Z,21.57
2023-01-02T16:04:02.380Z,20.83
2023-01-02T16:06:39.122Z,19.07
2023-01-02T16:09:15.549Z,20.53
2023-01-02T16:11:49.663Z,22.10
2023-01-02T16:14:20.041Z,22.47
2023-01-02T16:17:03.338Z,14.47
2023-01-02T16:19:57.995Z,23.33
2023-01-02T16:22:42.527Z,16.00
2023-01-02T16:25:18.048Z,19.93
2023-01-02T16:28:35.604Z,16.73
2023-01-02T16:31:18.695Z,12.10
2023-01-02T16:33:46.467Z,15.10
2023-01-02T16:36:24.710Z,13.53
2023-01-02T16:39:02.573Z,9.60
2023-01-02T16:42:16.526Z,9.83
2023-01-02T16:44:51.948Z,8.00
2023-01-02T16:47:18.853Z,6.13
2023-01-02T16:49:45.860Z,5.30
2023-01-02T16:52:12.878Z,9.60
2023-01-02T16:54:39.819Z,5.10
2023-01-02T16:57:14.058Z,4.47
2023-01-02T16:59:41.413Z,6.60
2023-01-02T17:02:12.636Z,3.87
2023-01-02T17:04:39.605Z,3.73
2023-01-02T17:07:06.544Z,4.50
2023-01-02T17:09:33.571Z,4.33
2023-01-02T17:12:00.772Z,3.27
2023-01-02T17:14:30.063Z,3.53
2023-01-02T17:16:57.572Z,4.30
2023-01-02T17:19:24.872Z,3.47
2023-01-02T17:21:52.231Z,3.30
2023-01-02T17:24:19.163Z,5.93
2023-01-02T17:26:47.237Z,3.03
2023-01-02T17:29:14.433Z,4.03
2023-01-02T17:31:42.590Z,4.63
2023-01-02T17:34:09.637Z,9.23
2023-01-02T17:36:36.659Z,5.13
2023-01-02T17:39:03.658Z,5.67
2023-01-02T17:41:30.607Z,5.17
2023-01-02T17:44:02.534Z,6.70
2023-01-02T17:47:04.273Z,8.93
2023-01-02T17:49:18.844Z,8.87
2023-01-02T17:51:45.847Z,8.13
2023-01-02T17:54:13.189Z,9.40
2023-01-02T17:56:40.187Z,9.57
2023-01-02T17:59:08.203Z,12.53
2023-01-02T18:01:35.273Z,10.87
2023-01-02T18:04:03.563Z,15.17
2023-01-02T18:06:30.415Z,9.57
2023-01-02T18:08:57.625Z,8.80
2023-01-02T18:11:24.757Z,9.40
2023-01-02T18:13:54.113Z,9.10
2023-01-02T18:16:23.930Z,9.23
2023-01-02T18:18:53.366Z,7.90
2023-01-02T18:21:23.346Z,8.77
2023-01-02T18:23:56.156Z,8.67
2023-01-02T18:26:24.523Z,6.30
2023-01-02T18:29:01.551Z,11.47
2023-01-02T18:31:41.443Z,4.20
2023-01-02T18:34:54.725Z,4.87
2023-01-02T18:37:26.292Z,3.83
2023-01-02T18:39:54.976Z,2.97
2023-01-02T18:42:26.627Z,2.43
2023-01-02T18:44:55.431Z,1.27
2023-01-02T18:47:32.297Z,1.40
2023-01-02T18:50:24.221Z,1.00
2023-01-02T18:52:52.154Z,1.87
2023-01-02T18:55:28.388Z,3.13
2023-01-02T18:58:01.381Z,2.60
2023-01-02T19:00:33.603Z,1.20
2023-01-02T19:03:11.046Z,1.60
2023-01-02T19:05:44.382Z,1.40
2023-01-02T19:08:37.049Z,3.57
2023-01-02T19:11:36.785Z,4.40
2023-01-02T19:14:17.237Z,2.60
2023-01-02T19:16:44.741Z,2.47
2023-01-02T19:19:17.187Z,2.80
2023-01-02T19:21:44.645Z,3.17
2023-01-02T19:24:21.802Z,4.27
2023-01-02T19:26:56.314Z,4.40
2023-01-02T19:29:29.912Z,4.53
2023-01-02T19:32:29.748Z,4.90
2023-01-02T19:35:19.165Z,5.60
2023-01-02T19:37:46.967Z,4.93
2023-01-02T19:40:20.721Z,4.63
2023-01-02T19:42:49.470Z,5.03
2023-01-02T19:45:28.204Z,4.80
2023-01-02T19:47:55.544Z,5.27
2023-01-02T19:50:25.452Z,4.87
2023-01-02T19:52:52.715Z,6.80
2023-01-02T19:55:19.780Z,5.57
2023-01-02T19:57:47.627Z,5.27
2023-01-02T20:00:16.716Z,4.70
2023-01-02T20:02:45.890Z,4.90
2023-01-02T20:05:20.717Z,5.50
2023-01-02T20:07:48.947Z,7.83
2023-01-02T20:10:16.181Z,4.57
2023-01-02T20:12:43.086Z,6.10
2023-01-02T20:15:15.543Z,6.40
2023-01-02T20:17:42.570Z,16.57
2023-01-02T20:20:13.517Z,6.90
2023-01-02T20:22:43.382Z,8.83
2023-01-02T20:25:15.414Z,8.47
2023-01-02T20:27:42.690Z,12.63
2023-01-02T20:30:11.787Z,15.57
2023-01-02T20:32:39.466Z,10.10
2023-01-02T20:35:07.393Z,14.90
2023-01-02T20:37:34.378Z,16.43
2023-01-02T20:40:01.301Z,10.90
2023-01-02T20:42:28.286Z,11.63
2023-01-02T20:44:55.287Z,10.33
2023-01-02T20:47:22.263Z,16.60
2023-01-02T20:49:49.209Z,12.10
2023-01-02T20:52:16.360Z,9.53
2023-01-02T20:54:43.588Z,9.63
2023-01-02T20:57:10.597Z,9.73
2023-01-02T20:59:37.552Z,10.00
2023-01-02T21:02:04.639Z,18.70
2023-01-02T21:04:36.458Z,9.40
2023-01-02T21:07:04.141Z,8.00
2023-01-02T21:09:31.271Z,9.17
2023-01-02T21:11:58.204Z,8.60
2023-01-02T21:14:25.107Z,11.63
2023-01-02T21:16:52.123Z,10.50
2023-01-02T21:19:19.107Z,10.90
2023-01-02T21:21:46.141Z,10.20
2023-01-02T21:24:13.170Z,15.20
2023-01-02T21:26:40.144Z,10.17
2023-01-02T21:29:07.063Z,8.77
2023-01-02T21:31:36.861Z,16.17
2023-01-02T21:34:04.369Z,9.53
2023-01-02T21:36:32.991Z,14.47
2023-01-02T21:38:59.932Z,21.20
2023-01-02T21:41:45.625Z,14.23
2023-01-02T21:44:12.624Z,13.90
2023-01-02T21:46:39.529Z,15.53
2023-01-02T21:49:06.550Z,15.80
2023-01-02T21:51:33.453Z,13.50
2023-01-02T21:54:00.540Z,15.50
2023-01-02T21:56:27.533Z,12.73
2023-01-02T21:58:55.167Z,15.50
2023-01-02T22:01:22.444Z,17.37
2023-01-02T22:03:49.526Z,16.27
2023-01-02T22:06:18.418Z,18.50
2023-01-02T22:08:45.426Z,15.73
2023-01-02T22:11:30.980Z,22.00
2023-01-02T22:13:58.124Z,14.80
2023-01-02T22:16:25.112Z,13.67
2023-01-02T22:18:52.082Z,13.70
2023-01-02T22:21:19.097Z,14.23
2023-01-02T22:23:46.075Z,15.50
2023-01-02T22:26:13.051Z,16.30
2023-01-02T22:28:42.936Z,14.07
2023-01-02T22:31:11.538Z,15.33
2023-01-02T22:33:39.015Z,19.00
2023-01-02T22:36:06.544Z,19.50
2023-01-02T22:38:34.020Z,15.73
2023-01-02T22:41:02.504Z,17.47
2023-01-02T22:43:34.625Z,15.40
2023-01-02T22:46:05.509Z,17.53
2023-01-02T22:48:37.952Z,21.47
2023-01-02T22:51:10.821Z,21.33
2023-01-02T22:53:39.193Z,16.80
2023-01-02T22:56:28.332Z,19.00
2023-01-02T22:58:55.210Z,17.30
2023-01-02T23:01:31.721Z,14.80
2023-01-02T23:04:00.227Z,14.77
2023-01-02T23:06:27.719Z,16.23
2023-01-02T23:08:54.817Z,16.27
2023-01-02T23:11:22.249Z,14.70
2023-01-02T23:13:56.069Z,14.80
2023-01-02T23:16:42.359Z,14.40
2023-01-02T23:19:15.500Z,15.80
2023-01-02T23:21:45.120Z,13.60
2023-01-02T23:24:13.634Z,14.57
2023-01-02T23:26:46.580Z,17.40
2023-01-02T23:29:14.654Z,21.30
2023-01-02T23:31:44.731Z,16.83
2023-01-02T23:34:15.432Z,18.43
2023-01-02T23:36:43.447Z,19.20
2023-01-02T23:39:15.902Z,23.50
2023-01-02T23:41:43.905Z,20.53
2023-01-02T23:44:11.764Z,25.87
2023-01-02T23:46:39.032Z,23.83
2023-01-02T23:49:06.453Z,25.97
2023-01-02T23:51:34.151Z,23.73
2023-01-02T23:54:07.845Z,23.70
2023-01-02T23:56:37.159Z,24.90
2023-01-02T23:59:06.920Z,22.40
